Time;durP1;ratioP1;P1;durP2;ratioP2;P2;SDS_P1;SDS_P2;PMS_P1;PMS_P2;Temp;Humidity;BMP_temperature;BMP_pressure;BME280_temperature;BME280_humidity;BME280_pressure;Samples;Min_cycle;Max_cycle;Signal;HPM_P1;HPM_P2
2022/03/23 00:02:18;;;;;;;15.68;8.30;;;12.30;41.00;;;;;;10028036;28;20117;-65
2022/03/23 00:07:09;;;;;;;15.05;8.38;;;12.20;41.80;;;;;;9987528;28;20038;-67
2022/03/23 00:12:00;;;;;;;14.18;8.35;;;12.00;41.50;;;;;;9999202;28;20022;-67
2022/03/23 00:16:50;;;;;;;13.90;7.88;;;12.00;41.70;;;;;;10043943;28;20077;-68
2022/03/23 00:21:41;;;;;;;14.65;8.13;;;11.90;41.90;;;;;;10007597;28;20018;-69
2022/03/23 00:26:32;;;;;;;15.38;7.85;;;11.80;42.20;;;;;;10033786;28;20081;-66
2022/03/23 00:31:23;;;;;;;15.90;8.18;;;11.80;42.20;;;;;;10029146;28;20072;-66
2022/03/23 00:36:13;;;;;;;17.20;8.52;;;11.70;42.50;;;;;;10015089;28;20064;-66
2022/03/23 00:41:04;;;;;;;20.42;8.07;;;11.70;43.30;;;;;;10022033;28;20032;-65
2022/03/23 00:45:55;;;;;;;16.77;7.10;;;11.70;42.80;;;;;;9999485;28;20041;-66
2022/03/23 00:50:46;;;;;;;18.55;8.00;;;11.60;43.00;;;;;;10027061;28;20029;-66
2022/03/23 00:55:37;;;;;;;14.43;7.53;;;11.60;43.20;;;;;;10018177;28;20333;-66
2022/03/23 01:00:28;;;;;;;14.63;7.28;;;11.50;43.50;;;;;;10036280;28;20026;-66
2022/03/23 01:05:19;;;;;;;16.17;9.25;;;11.50;43.70;;;;;;10020482;28;20117;-65
2022/03/23 01:10:12;;;;;;;17.20;7.95;;;11.40;43.90;;;;;;10017148;28;20034;-66
2022/03/23 01:15:03;;;;;;;17.00;7.93;;;11.30;44.20;;;;;;10007672;28;20060;-66
2022/03/23 01:19:54;;;;;;;14.13;7.05;;;11.20;44.40;;;;;;10030543;28;20030;-66
2022/03/23 01:24:45;;;;;;;13.57;7.30;;;11.30;45.30;;;;;;10029909;28;20136;-66
2022/03/23 01:29:36;;;;;;;10.90;6.20;;;11.20;44.70;;;;;;10025047;28;20077;-66
2022/03/23 01:34:27;;;;;;;11.73;6.90;;;11.30;45.00;;;;;;10030551;28;20044;-67
2022/03/23 01:39:17;;;;;;;11.25;7.15;;;11.20;45.30;;;;;;10022425;28;20025;-65
2022/03/23 01:44:17;;;;;;;13.45;6.65;;;11.10;45.40;;;;;;10019127;28;20045;-65
2022/03/23 01:49:08;;;;;;;14.13;6.18;;;11.00;45.80;;;;;;10012332;28;20492;-65
2022/03/23 01:53:58;;;;;;;11.10;6.38;;;10.90;46.00;;;;;;10039553;28;20033;-66
2022/03/23 01:58:49;;;;;;;13.50;7.70;;;10.80;46.30;;;;;;10033243;28;20120;-66
2022/03/23 02:03:40;;;;;;;12.15;6.85;;;10.70;46.40;;;;;;10019496;28;20207;-66
2022/03/23 02:08:31;;;;;;;12.48;6.68;;;10.70;46.70;;;;;;9989053;28;20087;-66
2022/03/23 02:13:22;;;;;;;16.17;6.70;;;10.70;46.90;;;;;;9999163;28;20405;-66
2022/03/23 02:18:12;;;;;;;12.82;7.30;;;10.60;47.00;;;;;;10035375;28;20022;-66
2022/03/23 02:23:03;;;;;;;11.93;6.20;;;10.60;47.20;;;;;;10051156;28;20139;-66
2022/03/23 02:27:55;;;;;;;13.80;6.22;;;10.60;47.30;;;;;;10037709;28;20082;-64
2022/03/23 02:32:46;;;;;;;14.38;6.20;;;10.40;47.70;;;;;;10032197;28;20017;-65
2022/03/23 02:37:40;;;;;;;10.60;6.75;;;10.40;47.90;;;;;;10022986;28;20036;-65
2022/03/23 02:42:31;;;;;;;14.80;7.28;;;10.40;48.20;;;;;;10024616;28;20073;-65
2022/03/23 02:47:21;;;;;;;9.27;5.70;;;10.30;48.30;;;;;;10018440;28;20132;-65
2022/03/23 02:52:12;;;;;;;9.93;5.28;;;10.20;48.70;;;;;;10040597;28;20068;-66
2022/03/23 03:02:31;;;;;;;12.00;5.13;;;10.20;49.20;;;;;;10030538;28;20519;-65
2022/03/23 03:07:22;;;;;;;10.55;5.32;;;10.10;49.40;;;;;;10024186;28;20063;-66
2022/03/23 03:12:13;;;;;;;10.50;4.90;;;10.00;49.60;;;;;;10023239;28;20446;-65
2022/03/23 03:17:05;;;;;;;9.63;5.57;;;9.90;49.90;;;;;;10040417;28;20029;-66
2022/03/23 03:21:56;;;;;;;10.75;5.82;;;9.90;50.10;;;;;;10040398;28;20026;-66
2022/03/23 03:26:47;;;;;;;10.38;5.65;;;9.90;50.10;;;;;;10034152;28;20046;-65
2022/03/23 03:31:38;;;;;;;13.15;4.85;;;9.80;50.50;;;;;;10031985;28;20688;-65
2022/03/23 03:36:28;;;;;;;12.27;5.30;;;9.70;50.70;;;;;;10014020;28;20041;-65
2022/03/23 03:41:20;;;;;;;16.08;5.53;;;9.50;50.90;;;;;;10024086;28;20029;-65
2022/03/23 03:46:11;;;;;;;9.38;5.72;;;9.60;51.10;;;;;;10020349;28;20515;-65
2022/03/23 03:51:02;;;;;;;9.50;6.07;;;9.60;51.10;;;;;;10030780;28;20169;-65
2022/03/23 03:55:52;;;;;;;12.77;5.70;;;9.50;51.40;;;;;;10005148;28;20650;-65
2022/03/23 04:00:44;;;;;;;10.15;5.97;;;9.40;51.90;;;;;;10032036;28;20037;-65
2022/03/23 04:05:35;;;;;;;10.77;5.65;;;9.30;52.00;;;;;;10020749;28;20041;-65
2022/03/23 04:10:27;;;;;;;8.95;6.72;;;9.20;52.30;;;;;;10020319;28;20025;-66
2022/03/23 04:15:20;;;;;;;8.93;5.18;;;9.20;52.50;;;;;;10016452;28;20036;-65
2022/03/23 04:20:11;;;;;;;12.25;5.75;;;9.10;52.70;;;;;;10030046;28;20129;-65
2022/03/23 04:25:02;;;;;;;9.85;5.75;;;9.10;52.90;;;;;;10013712;28;20100;-65
2022/03/23 04:29:53;;;;;;;10.48;6.30;;;9.00;53.30;;;;;;10021254;28;20046;-65
2022/03/23 04:34:44;;;;;;;11.50;5.82;;;8.90;53.50;;;;;;10022184;28;20037;-65
2022/03/23 04:39:34;;;;;;;10.95;5.20;;;8.70;53.80;;;;;;10025636;28;21008;-65
2022/03/23 04:44:25;;;;;;;12.32;5.13;;;8.60;54.00;;;;;;10018540;28;20389;-66
2022/03/23 04:49:16;;;;;;;12.48;5.80;;;8.50;54.10;;;;;;10018047;28;20117;-65
2022/03/23 04:54:07;;;;;;;9.65;5.20;;;8.60;54.30;;;;;;10038931;28;20029;-65
2022/03/23 04:58:59;;;;;;;9.35;5.72;;;8.50;54.70;;;;;;10028820;28;20029;-68
2022/03/23 05:03:51;;;;;;;11.68;5.75;;;8.40;55.10;;;;;;10022035;28;20026;-66
2022/03/23 05:08:42;;;;;;;13.43;6.75;;;8.40;55.10;;;;;;10020461;28;20034;-65
2022/03/23 05:13:34;;;;;;;12.88;6.70;;;8.40;55.40;;;;;;10015236;28;20041;-66
2022/03/23 05:18:25;;;;;;;14.68;5.72;;;8.40;55.60;;;;;;10048693;28;20380;-67
2022/03/23 05:23:16;;;;;;;11.43;7.40;;;8.30;55.90;;;;;;10030156;28;20492;-67
2022/03/23 05:28:10;;;;;;;9.18;5.30;;;8.20;56.20;;;;;;10017685;28;20049;-67
2022/03/23 05:33:01;;;;;;;12.95;5.25;;;8.10;56.30;;;;;;10025604;28;20277;-66
2022/03/23 05:37:52;;;;;;;9.13;5.60;;;8.10;56.70;;;;;;10024320;28;20131;-66
2022/03/23 05:42:42;;;;;;;9.68;5.88;;;8.00;56.80;;;;;;10019164;28;20025;-66
2022/03/23 05:47:34;;;;;;;12.60;5.97;;;8.00;56.80;;;;;;10015157;28;20034;-66
2022/03/23 05:52:25;;;;;;;9.73;5.75;;;8.00;57.00;;;;;;10022445;28;20033;-68
2022/03/23 05:57:16;;;;;;;9.70;5.55;;;7.90;57.20;;;;;;10030477;28;20034;-66
2022/03/23 06:02:06;;;;;;;9.30;5.45;;;8.00;57.20;;;;;;10030903;28;20030;-67
2022/03/23 06:06:57;;;;;;;11.60;5.55;;;8.00;57.10;;;;;;10018056;28;20035;-67
2022/03/23 06:11:48;;;;;;;8.15;4.93;;;8.00;57.30;;;;;;10013573;28;20044;-65
2022/03/23 06:16:38;;;;;;;9.25;5.47;;;8.10;57.50;;;;;;10012309;28;20120;-65
2022/03/23 06:21:29;;;;;;;10.77;6.13;;;8.20;57.30;;;;;;10025813;28;20113;-66
2022/03/23 06:26:20;;;;;;;11.38;5.90;;;8.10;57.50;;;;;;10030089;28;20053;-65
2022/03/23 06:31:11;;;;;;;10.90;6.28;;;8.00;57.80;;;;;;10022957;28;20029;-66
2022/03/23 06:36:02;;;;;;;15.90;6.22;;;8.00;57.80;;;;;;10025574;28;20025;-66
2022/03/23 06:40:52;;;;;;;10.85;5.55;;;8.10;57.80;;;;;;10020142;28;20105;-66
2022/03/23 06:45:44;;;;;;;10.98;5.95;;;8.30;57.80;;;;;;10013625;28;20066;-66
2022/03/23 06:50:35;;;;;;;10.52;6.47;;;8.30;57.80;;;;;;10018832;28;20520;-66
2022/03/23 06:55:26;;;;;;;12.50;5.57;;;8.30;57.90;;;;;;10040253;28;20060;-66
2022/03/23 07:00:17;;;;;;;10.43;6.25;;;8.30;58.20;;;;;;10023915;28;20478;-66
2022/03/23 07:05:09;;;;;;;14.15;6.78;;;8.30;58.40;;;;;;10007118;28;20065;-66
2022/03/23 07:09:59;;;;;;;10.35;6.57;;;8.40;58.20;;;;;;10004076;28;20108;-68
2022/03/23 07:14:50;;;;;;;13.90;6.03;;;8.40;58.50;;;;;;10001086;28;20033;-67
2022/03/23 07:19:41;;;;;;;11.20;6.80;;;8.50;58.50;;;;;;10039404;28;20104;-67
2022/03/23 07:24:31;;;;;;;14.50;7.05;;;8.70;58.40;;;;;;10037961;28;20033;-69
2022/03/23 07:29:22;;;;;;;17.85;6.20;;;8.50;58.60;;;;;;10005498;28;20072;-66
2022/03/23 07:34:18;;;;;;;9.57;6.70;;;8.60;58.90;;;;;;10026539;28;20032;-66
2022/03/23 07:39:09;;;;;;;18.30;7.40;;;8.70;59.20;;;;;;10014935;28;20030;-59
2022/03/23 07:43:59;;;;;;;16.67;8.90;;;8.80;59.20;;;;;;10016956;28;20038;-65
2022/03/23 07:48:50;;;;;;;13.63;8.10;;;8.80;59.00;;;;;;10001849;28;20296;-68
2022/03/23 07:53:42;;;;;;;16.02;8.00;;;9.00;59.10;;;;;;10020805;28;20053;-65
2022/03/23 07:58:33;;;;;;;16.20;8.05;;;9.10;59.30;;;;;;10018164;28;20036;-64
2022/03/23 08:03:24;;;;;;;14.70;8.55;;;9.30;59.00;;;;;;10021849;28;20033;-64
2022/03/23 08:08:14;;;;;;;18.30;8.02;;;9.50;58.80;;;;;;10019054;28;20038;-64
2022/03/23 08:13:05;;;;;;;13.95;7.55;;;9.60;59.10;;;;;;10016687;28;20041;-66
2022/03/23 08:17:56;;;;;;;16.10;9.30;;;9.70;59.40;;;;;;10015958;28;20135;-61
2022/03/23 08:22:47;;;;;;;13.77;8.18;;;9.90;58.90;;;;;;10021944;28;20021;-64
2022/03/23 08:27:38;;;;;;;14.68;8.63;;;9.90;59.30;;;;;;10019018;28;20056;-62
2022/03/23 08:32:28;;;;;;;20.60;8.57;;;10.20;58.90;;;;;;10018404;28;20021;-66
2022/03/23 08:37:19;;;;;;;19.63;8.68;;;10.30;58.80;;;;;;10018884;28;20033;-66
2022/03/23 08:42:10;;;;;;;19.92;8.57;;;10.50;58.70;;;;;;10019821;28;20103;-62
2022/03/23 08:47:02;;;;;;;16.35;10.10;;;10.60;58.60;;;;;;10014042;28;20050;-60
2022/03/23 08:51:52;;;;;;;15.70;8.88;;;10.80;58.40;;;;;;10020408;28;20029;-62
2022/03/23 08:56:43;;;;;;;15.30;8.75;;;10.80;58.40;;;;;;10017063;28;20040;-65
2022/03/23 09:01:34;;;;;;;17.25;8.55;;;10.90;58.20;;;;;;9990219;28;20485;-67
2022/03/23 09:06:25;;;;;;;13.48;8.52;;;11.10;58.10;;;;;;10016447;28;20566;-64
2022/03/23 09:11:16;;;;;;;16.95;9.98;;;11.40;57.60;;;;;;10014428;28;20087;-66
2022/03/23 09:16:06;;;;;;;17.75;10.35;;;11.50;57.30;;;;;;10015022;28;20053;-65
2022/03/23 09:20:57;;;;;;;25.10;10.25;;;11.60;57.30;;;;;;10017179;28;20116;-65
2022/03/23 09:25:49;;;;;;;19.50;10.07;;;11.70;57.00;;;;;;10013475;28;20616;-63
2022/03/23 09:30:39;;;;;;;20.67;10.85;;;11.90;56.70;;;;;;10010764;28;20257;-64
2022/03/23 09:35:30;;;;;;;21.67;9.70;;;12.00;56.30;;;;;;9991842;28;20326;-65
2022/03/23 09:40:24;;;;;;;16.88;10.57;;;12.20;56.00;;;;;;10022738;28;20030;-64
2022/03/23 09:45:28;;;;;;;14.93;9.75;;;12.30;55.70;;;;;;10017260;28;20496;-67
2022/03/23 09:50:19;;;;;;;23.90;10.32;;;12.60;55.30;;;;;;10011899;28;20079;-66
2022/03/23 09:55:10;;;;;;;19.27;9.68;;;12.70;55.00;;;;;;9994250;28;20443;-68
2022/03/23 10:00:00;;;;;;;21.33;10.70;;;12.80;55.00;;;;;;10000050;28;20132;-66
2022/03/23 10:05:19;;;;;;;21.10;10.15;;;13.00;54.60;;;;;;10012142;28;20026;-66
2022/03/23 10:10:47;;;;;;;18.60;9.75;;;13.10;54.00;;;;;;10012384;28;20034;-65
2022/03/23 10:16:15;;;;;;;17.52;10.10;;;13.10;53.60;;;;;;10011146;28;20044;-65
2022/03/23 10:21:07;;;;;;;17.08;10.38;;;13.40;52.40;;;;;;10012526;28;20058;-66
2022/03/23 10:26:13;;;;;;;18.27;10.63;;;13.50;52.90;;;;;;10010560;28;20144;-63
2022/03/23 10:31:18;;;;;;;18.30;10.57;;;13.70;52.00;;;;;;10015817;28;20022;-63
2022/03/23 10:36:09;;;;;;;21.75;10.80;;;13.80;52.00;;;;;;10011516;28;20088;-69
2022/03/23 10:41:09;;;;;;;15.90;10.48;;;13.80;51.50;;;;;;10018919;28;20389;-64
2022/03/23 10:46:10;;;;;;;17.13;10.00;;;14.00;51.10;;;;;;10003876;28;20049;-63
2022/03/23 10:51:01;;;;;;;18.83;10.52;;;14.20;50.70;;;;;;10026456;28;20431;-69
2022/03/23 10:55:51;;;;;;;17.08;9.68;;;14.20;50.30;;;;;;10024865;28;20865;-65
2022/03/23 11:00:42;;;;;;;15.15;9.07;;;14.20;50.10;;;;;;10022700;28;20030;-67
2022/03/23 11:05:33;;;;;;;19.55;9.88;;;14.30;49.60;;;;;;10024535;28;20040;-67
2022/03/23 11:15:46;;;;;;;21.08;11.63;;;14.60;49.00;;;;;;10028841;28;20523;-67
2022/03/23 11:20:46;;;;;;;21.15;12.85;;;14.80;49.50;;;;;;10028095;28;20030;-64
2022/03/23 11:25:37;;;;;;;18.75;11.02;;;14.90;48.60;;;;;;10031562;28;20038;-67
2022/03/23 11:30:30;;;;;;;19.95;11.00;;;14.90;48.40;;;;;;10033458;28;20041;-65
2022/03/23 11:35:22;;;;;;;25.48;12.43;;;15.10;48.20;;;;;;10004508;28;20030;-65
2022/03/23 11:40:13;;;;;;;20.63;11.27;;;15.20;47.70;;;;;;10012127;28;20566;-65
2022/03/23 11:45:07;;;;;;;17.58;10.35;;;15.30;47.10;;;;;;10024878;28;20034;-68
2022/03/23 11:50:22;;;;;;;23.15;11.88;;;15.40;47.10;;;;;;10022782;28;20037;-67
2022/03/23 11:55:37;;;;;;;21.07;10.93;;;15.50;46.70;;;;;;10035651;28;20476;-64
2022/03/23 12:00:36;;;;;;;15.73;10.27;;;15.50;46.70;;;;;;10006061;28;20033;-67
2022/03/23 12:05:31;;;;;;;17.40;10.45;;;15.60;46.30;;;;;;10037223;28;20048;-66
2022/03/23 12:10:24;;;;;;;32.15;15.93;;;15.80;46.30;;;;;;10021727;28;20076;-67
2022/03/23 12:15:26;;;;;;;19.92;11.40;;;16.00;45.90;;;;;;10015346;28;20321;-68
2022/03/23 12:20:17;;;;;;;20.73;12.65;;;16.10;45.20;;;;;;10019010;28;20033;-66
2022/03/23 12:25:28;;;;;;;20.30;10.60;;;16.40;45.40;;;;;;10019710;28;20073;-66
2022/03/23 12:30:37;;;;;;;18.42;10.65;;;16.70;44.80;;;;;;10012410;28;20129;-67
2022/03/23 12:35:32;;;;;;;25.50;11.48;;;16.90;44.60;;;;;;10012144;28;20105;-66
2022/03/23 12:40:34;;;;;;;21.75;11.68;;;17.00;44.40;;;;;;10016619;28;20045;-66
2022/03/23 12:45:33;;;;;;;21.38;13.73;;;17.70;44.60;;;;;;10018981;28;20124;-67
2022/03/23 13:01:10;;;;;;;17.00;10.63;;;18.80;44.50;;;;;;10017055;28;20092;-68
2022/03/23 13:06:07;;;;;;;18.17;12.30;;;19.10;43.30;;;;;;10017065;28;20093;-67
2022/03/23 13:11:01;;;;;;;19.25;11.85;;;19.40;44.00;;;;;;10017279;28;20030;-67
2022/03/23 13:15:52;;;;;;;21.67;12.60;;;19.80;44.20;;;;;;10015585;28;20021;-67
2022/03/23 13:20:50;;;;;;;15.80;10.73;;;20.30;44.20;;;;;;10013748;28;20105;-70
2022/03/23 13:25:42;;;;;;;14.07;9.73;;;20.80;43.60;;;;;;10004496;28;20531;-68
2022/03/23 13:30:34;;;;;;;16.80;9.98;;;21.50;43.20;;;;;;9994563;28;20036;-64
2022/03/23 13:35:25;;;;;;;12.80;10.25;;;21.90;42.00;;;;;;10014204;28;20519;-68
2022/03/23 13:40:20;;;;;;;16.52;13.80;;;22.50;40.00;;;;;;10014625;28;20034;-71
2022/03/23 13:45:11;;;;;;;17.17;12.85;;;24.80;37.30;;;;;;9997827;28;20450;-65
2022/03/23 13:50:09;;;;;;;14.98;11.00;;;27.50;35.30;;;;;;10013378;28;20204;-68
2022/03/23 13:54:59;;;;;;;12.43;10.60;;;28.40;33.50;;;;;;10014856;28;20032;-67
2022/03/23 13:59:51;;;;;;;15.93;10.88;;;28.40;32.20;;;;;;10014559;28;20042;-66
2022/03/23 14:04:42;;;;;;;16.93;11.20;;;29.50;31.90;;;;;;10016688;28;20076;-68
2022/03/23 14:09:37;;;;;;;13.20;10.38;;;28.00;31.20;;;;;;10014334;28;20026;-70
2022/03/23 14:14:35;;;;;;;13.88;11.05;;;26.60;30.70;;;;;;10021413;28;20018;-71
2022/03/23 14:19:28;;;;;;;14.40;9.60;;;26.80;30.50;;;;;;10027800;28;20088;-70
2022/03/23 14:24:19;;;;;;;12.13;9.68;;;26.40;30.20;;;;;;10027758;28;20038;-69
2022/03/23 14:29:21;;;;;;;16.02;10.55;;;25.40;30.30;;;;;;10013396;28;20037;-70
2022/03/23 14:34:12;;;;;;;13.57;9.65;;;25.70;28.70;;;;;;10028409;28;20075;-72
2022/03/23 14:39:22;;;;;;;11.63;8.65;;;25.30;29.90;;;;;;10021928;28;20049;-72
2022/03/23 14:44:13;;;;;;;12.20;9.75;;;26.50;29.10;;;;;;10017582;28;20139;-69
2022/03/23 14:49:11;;;;;;;11.43;8.93;;;26.60;28.80;;;;;;10018351;28;20033;-66
2022/03/23 14:54:04;;;;;;;10.85;9.63;;;26.80;28.60;;;;;;10018919;28;20393;-64
2022/03/23 14:58:59;;;;;;;14.70;9.15;;;27.20;28.20;;;;;;10021191;28;20117;-68
2022/03/23 15:03:50;;;;;;;10.40;8.38;;;27.20;27.70;;;;;;10018784;28;20491;-69
2022/03/23 15:13:50;;;;;;;14.55;9.13;;;29.40;26.80;;;;;;10020741;28;20069;-67
2022/03/23 15:18:40;;;;;;;11.35;7.78;;;30.40;26.30;;;;;;10030519;28;20044;-70
2022/03/23 15:23:34;;;;;;;11.57;8.80;;;30.30;25.80;;;;;;10032609;28;20030;-67
2022/03/23 15:28:25;;;;;;;12.00;8.43;;;30.90;25.50;;;;;;10037043;28;20050;-67
2022/03/23 15:33:19;;;;;;;10.57;7.22;;;31.60;25.20;;;;;;10033966;28;20520;-62
2022/03/23 15:38:10;;;;;;;8.95;7.90;;;30.80;24.80;;;;;;10030143;28;20060;-67
2022/03/23 15:43:03;;;;;;;10.35;8.27;;;31.20;24.60;;;;;;10020673;28;20030;-68
2022/03/23 15:47:54;;;;;;;12.55;8.40;;;31.30;24.30;;;;;;10016611;28;20137;-67
2022/03/23 15:52:45;;;;;;;10.02;7.28;;;31.40;24.30;;;;;;10020530;28;20124;-65
2022/03/23 15:57:35;;;;;;;12.45;7.72;;;31.30;24.40;;;;;;10012100;28;20038;-64
2022/03/23 16:02:26;;;;;;;10.05;7.97;;;30.40;24.90;;;;;;10025283;28;20098;-61
2022/03/23 16:07:17;;;;;;;10.05;7.72;;;30.00;25.10;;;;;;10022819;28;20034;-64
2022/03/23 16:12:08;;;;;;;8.90;7.97;;;29.80;25.20;;;;;;10017242;28;20494;-62
2022/03/23 16:16:59;;;;;;;11.35;7.28;;;29.50;25.10;;;;;;10015105;28;20072;-66
2022/03/23 16:21:49;;;;;;;11.02;8.05;;;29.20;25.10;;;;;;10014777;28;20381;-66
2022/03/23 16:26:40;;;;;;;9.50;6.75;;;29.60;24.70;;;;;;10017281;28;20054;-65
2022/03/23 16:31:34;;;;;;;10.45;7.43;;;29.50;24.60;;;;;;10022261;28;20030;-65
2022/03/23 16:36:26;;;;;;;9.93;7.10;;;27.90;24.70;;;;;;9997545;28;20037;-65
2022/03/23 16:41:36;;;;;;;14.07;8.13;;;24.40;25.90;;;;;;9999907;28;20033;-66
2022/03/23 16:46:31;;;;;;;11.98;7.47;;;22.90;26.90;;;;;;10016218;28;20413;-67
2022/03/23 16:51:22;;;;;;;9.23;6.97;;;22.50;26.30;;;;;;10017251;28;20022;-65
2022/03/23 16:56:12;;;;;;;11.20;6.68;;;23.10;26.00;;;;;;10014741;28;20064;-65
2022/03/23 17:01:03;;;;;;;12.77;7.38;;;24.90;25.20;;;;;;10018386;28;20026;-65
2022/03/23 17:16:14;;;;;;;15.07;6.90;;;21.00;27.10;;;;;;10014508;28;20180;-66
2022/03/23 17:21:05;;;;;;;10.27;6.45;;;20.40;27.30;;;;;;10015347;28;20374;-65
2022/03/23 17:25:57;;;;;;;12.90;6.70;;;20.00;27.50;;;;;;10018400;28;20125;-64
2022/03/23 17:30:47;;;;;;;9.07;6.25;;;19.70;27.70;;;;;;10013628;28;20392;-66
2022/03/23 17:35:38;;;;;;;12.65;6.88;;;19.40;27.60;;;;;;10011707;28;20214;-65
2022/03/23 17:40:29;;;;;;;11.15;7.25;;;19.20;27.90;;;;;;10019725;28;20421;-64
2022/03/23 17:45:20;;;;;;;11.38;6.20;;;19.00;28.00;;;;;;9989339;28;20101;-65
2022/03/23 17:50:11;;;;;;;12.43;7.00;;;18.80;28.10;;;;;;10000367;28;20060;-64
2022/03/23 17:55:03;;;;;;;12.48;7.18;;;18.70;28.30;;;;;;10030443;28;20063;-65
2022/03/23 17:59:54;;;;;;;11.85;7.28;;;18.60;28.40;;;;;;10025370;28;20018;-65
2022/03/23 18:04:44;;;;;;;13.30;8.68;;;18.40;28.60;;;;;;10024317;28;20260;-66
2022/03/23 18:09:35;;;;;;;12.98;8.05;;;18.30;28.80;;;;;;10025034;28;20585;-64
2022/03/23 18:14:27;;;;;;;17.40;8.68;;;18.20;28.90;;;;;;10014940;28;20037;-65
2022/03/23 18:19:18;;;;;;;15.18;8.60;;;18.10;29.00;;;;;;10036017;28;20112;-66
2022/03/23 18:24:09;;;;;;;14.57;8.50;;;18.10;29.10;;;;;;10030765;28;20132;-65
2022/03/23 18:29:00;;;;;;;12.80;8.25;;;18.00;29.20;;;;;;10022627;28;20046;-63
2022/03/23 18:33:51;;;;;;;13.63;7.53;;;17.80;29.40;;;;;;10025994;28;20061;-64
2022/03/23 18:38:42;;;;;;;13.85;8.23;;;17.80;29.50;;;;;;10031505;28;20211;-65
2022/03/23 18:43:33;;;;;;;12.93;8.10;;;17.70;29.60;;;;;;10025280;28;20022;-64
2022/03/23 18:48:23;;;;;;;15.05;7.88;;;17.70;29.70;;;;;;10020040;28;20026;-66
2022/03/23 18:53:14;;;;;;;16.40;9.50;;;17.60;29.80;;;;;;10021450;28;20045;-65
2022/03/23 18:58:04;;;;;;;13.15;7.93;;;17.50;30.00;;;;;;10020059;28;20029;-65
2022/03/23 19:02:55;;;;;;;15.82;9.10;;;17.40;30.00;;;;;;10022081;28;20034;-65
2022/03/23 19:07:54;;;;;;;15.60;8.82;;;17.30;30.10;;;;;;10026815;28;20516;-64
2022/03/23 19:12:45;;;;;;;17.27;7.93;;;17.30;30.20;;;;;;10008457;28;20029;-65
2022/03/23 19:17:35;;;;;;;17.13;8.57;;;17.10;30.50;;;;;;10051463;28;20505;-65
2022/03/23 19:22:26;;;;;;;18.45;8.27;;;17.00;30.50;;;;;;10063485;28;20048;-64
2022/03/23 19:27:17;;;;;;;14.48;9.13;;;17.00;30.70;;;;;;10040349;28;20137;-65
2022/03/23 19:32:08;;;;;;;13.10;8.02;;;16.90;30.80;;;;;;10040533;28;20473;-68
2022/03/23 19:36:59;;;;;;;13.95;8.40;;;16.80;30.80;;;;;;10082109;28;20033;-65
2022/03/23 19:41:50;;;;;;;15.80;7.60;;;16.80;31.00;;;;;;10074671;28;20491;-65
2022/03/23 19:46:40;;;;;;;19.13;7.47;;;16.70;31.00;;;;;;10081132;28;20094;-65
2022/03/23 19:51:32;;;;;;;12.23;8.52;;;16.60;31.10;;;;;;10081406;28;20025;-65
2022/03/23 19:56:24;;;;;;;15.63;8.13;;;16.50;31.20;;;;;;10067507;28;20128;-65
2022/03/23 20:01:16;;;;;;;13.88;8.02;;;16.40;31.30;;;;;;10069513;28;20386;-66
2022/03/23 20:06:07;;;;;;;13.93;7.78;;;16.40;31.60;;;;;;10083719;28;20056;-64
2022/03/23 20:10:57;;;;;;;19.83;9.07;;;16.40;31.60;;;;;;10057148;28;20113;-65
2022/03/23 20:15:48;;;;;;;14.10;8.52;;;16.30;31.70;;;;;;10046560;28;20072;-65
2022/03/23 20:20:39;;;;;;;16.55;8.57;;;16.30;31.90;;;;;;10065722;28;20556;-64
2022/03/23 20:25:30;;;;;;;14.98;8.30;;;16.20;31.90;;;;;;10067238;28;20026;-64
2022/03/23 20:30:21;;;;;;;17.42;9.43;;;16.10;32.10;;;;;;10058722;28;20372;-64
2022/03/23 20:35:12;;;;;;;17.90;10.63;;;16.10;32.20;;;;;;10065703;28;20045;-64
2022/03/23 20:40:05;;;;;;;17.38;8.73;;;16.00;32.30;;;;;;10082975;28;20051;-66
2022/03/23 20:44:56;;;;;;;22.33;9.88;;;16.00;32.50;;;;;;10079051;28;20460;-65
2022/03/23 20:49:46;;;;;;;17.83;9.95;;;15.80;32.60;;;;;;10076309;28;20029;-65
2022/03/23 20:54:37;;;;;;;20.75;10.27;;;15.60;32.70;;;;;;10068059;28;20562;-67
2022/03/23 20:59:28;;;;;;;17.55;10.73;;;15.50;33.10;;;;;;10064732;28;20049;-65
2022/03/23 21:04:19;;;;;;;17.90;9.20;;;15.50;33.20;;;;;;10074215;28;20299;-66
2022/03/23 21:09:10;;;;;;;18.55;9.23;;;15.40;33.10;;;;;;10074894;28;20026;-64
2022/03/23 21:14:01;;;;;;;19.38;10.60;;;15.20;33.50;;;;;;10054959;28;20035;-65
2022/03/23 21:18:53;;;;;;;19.77;10.10;;;15.10;33.50;;;;;;10067640;28;20167;-65
2022/03/23 21:23:44;;;;;;;22.20;10.70;;;15.00;33.70;;;;;;10054592;28;20034;-66
2022/03/23 21:28:35;;;;;;;20.60;9.60;;;15.00;34.00;;;;;;10058044;28;20049;-65
2022/03/23 21:33:26;;;;;;;16.05;10.40;;;15.00;34.00;;;;;;10054870;28;20415;-66
2022/03/23 21:38:18;;;;;;;27.45;12.13;;;14.90;34.20;;;;;;10055757;28;20036;-64
2022/03/23 21:43:08;;;;;;;23.98;10.93;;;14.90;34.20;;;;;;10076024;28;20025;-64
2022/03/23 21:47:59;;;;;;;19.30;10.25;;;14.80;34.40;;;;;;10068783;28;20402;-67
2022/03/23 21:52:51;;;;;;;22.73;12.48;;;14.70;34.60;;;;;;10047160;28;20029;-64
2022/03/23 21:57:42;;;;;;;19.35;10.60;;;14.60;34.80;;;;;;10060021;28;20707;-64
2022/03/23 22:02:32;;;;;;;16.38;9.55;;;14.60;35.00;;;;;;10061847;28;20428;-64
2022/03/23 22:07:32;;;;;;;30.42;11.48;;;14.40;35.70;;;;;;10049775;28;20190;-65
2022/03/23 22:12:23;;;;;;;24.63;11.32;;;14.40;35.30;;;;;;10052358;28;20026;-68
2022/03/23 22:17:13;;;;;;;22.98;13.38;;;14.40;35.40;;;;;;10063367;28;20049;-65
2022/03/23 22:22:05;;;;;;;20.98;10.93;;;14.30;35.50;;;;;;10054719;28;20142;-68
2022/03/23 22:26:55;;;;;;;20.08;11.88;;;14.20;35.60;;;;;;10049315;28;20167;-67
2022/03/23 22:31:46;;;;;;;18.48;11.00;;;14.10;35.90;;;;;;10032123;28;20156;-68
2022/03/23 22:36:37;;;;;;;27.38;11.93;;;14.10;36.00;;;;;;10058939;28;20203;-69
2022/03/23 22:41:31;;;;;;;20.77;10.32;;;14.00;36.10;;;;;;10069060;28;20036;-70
2022/03/23 22:46:22;;;;;;;21.30;10.30;;;13.80;36.20;;;;;;10058866;28;20026;-67
2022/03/23 22:51:13;;;;;;;22.80;11.43;;;13.70;36.50;;;;;;10063434;28;20024;-67
2022/03/23 22:56:05;;;;;;;26.02;12.02;;;13.60;36.60;;;;;;10061789;28;20029;-67
2022/03/23 23:01:11;;;;;;;22.33;11.43;;;13.60;36.90;;;;;;10059808;28;20468;-68
2022/03/23 23:06:01;;;;;;;19.85;11.32;;;13.60;37.10;;;;;;10055950;28;20487;-67
2022/03/23 23:10:52;;;;;;;21.73;10.50;;;13.70;37.20;;;;;;10074024;28;20033;-67
2022/03/23 23:15:42;;;;;;;22.63;12.27;;;13.60;37.40;;;;;;10078873;28;20035;-66
2022/03/23 23:20:33;;;;;;;18.58;10.20;;;13.60;37.60;;;;;;10080141;28;20056;-66
2022/03/23 23:25:24;;;;;;;21.00;11.10;;;13.40;37.70;;;;;;10069179;28;20037;-67
2022/03/23 23:30:17;;;;;;;20.73;11.05;;;13.50;37.90;;;;;;10068315;28;20079;-66
2022/03/23 23:35:10;;;;;;;22.05;10.55;;;13.30;38.10;;;;;;10059979;28;20442;-67
2022/03/23 23:40:01;;;;;;;22.95;12.00;;;13.40;38.40;;;;;;10061305;28;20025;-67
2022/03/23 23:44:52;;;;;;;27.27;11.85;;;13.30;38.50;;;;;;10063582;28;20055;-67
2022/03/23 23:49:43;;;;;;;20.25;11.27;;;13.20;38.50;;;;;;10077892;28;20020;-66
2022/03/23 23:54:36;;;;;;;23.83;13.13;;;13.10;38.70;;;;;;10050680;28;20025;-67
2022/03/23 23:59:26;;;;;;;23.67;12.75;;;12.90;39.00;;;;;;10067654;28;20033;-67
